Time;durP1;ratioP1;P1;durP2;ratioP2;P2;SDS_P1;SDS_P2;PMS_P1;PMS_P2;Temp;Humidity;BMP_temperature;BMP_pressure;BME280_temperature;BME280_humidity;BME280_pressure;Samples;Min_cycle;Max_cycle;Signal;HPM_P1;HPM_P2
2024/01/12 00:02:17;;;;;;;0.00;0.00;;;;;;;5.97;82.84;102531.50;4973767;28;20382;-78
2024/01/12 00:04:43;;;;;;;0.00;0.00;;;;;;;5.86;83.06;102504.78;4973102;28;20381;-78
2024/01/12 00:07:11;;;;;;;0.00;0.00;;;;;;;5.89;82.81;102512.56;4966541;28;20042;-78
2024/01/12 00:09:38;;;;;;;0.00;0.00;;;;;;;5.92;82.65;102523.06;4960445;28;20037;-78
2024/01/12 00:12:04;;;;;;;0.00;0.00;;;;;;;5.87;83.05;102498.31;4970743;28;20152;-79
2024/01/12 00:14:32;;;;;;;0.00;0.00;;;;;;;6.00;82.39;102514.88;4954929;28;20022;-78
2024/01/12 00:17:10;;;;;;;0.00;0.00;;;;;;;6.01;82.57;102500.25;4960773;28;20050;-79
2024/01/12 00:19:42;;;;;;;0.00;0.00;;;;;;;6.19;82.81;102516.22;4957873;28;20417;-79
2024/01/12 00:22:08;;;;;;;0.10;0.10;;;;;;;5.96;82.29;102464.63;4965639;28;20069;-80
2024/01/12 00:24:33;;;;;;;0.00;0.00;;;;;;;6.04;82.10;102489.00;4982081;28;20026;-80
2024/01/12 00:26:59;;;;;;;0.00;0.00;;;;;;;6.19;81.80;102512.63;4984615;28;20038;-80
2024/01/12 00:29:26;;;;;;;0.00;0.00;;;;;;;5.79;82.08;102446.81;4963232;28;20018;-81
2024/01/12 00:32:06;;;;;;;;;;;;;;;;;;;;;
2024/01/12 00:34:32;;;;;;;0.10;0.10;;;;;;;5.83;81.35;102475.28;4991757;28;20025;-79
2024/01/12 00:36:59;;;;;;;0.00;0.00;;;;;;;5.77;82.35;102485.00;4968973;28;20062;-78
2024/01/12 00:39:24;;;;;;;0.00;0.00;;;;;;;5.91;82.31;102499.63;4962457;28;20105;-78
2024/01/12 00:41:52;;;;;;;0.00;0.00;;;;;;;5.77;82.03;102476.84;4957718;28;20409;-80
2024/01/12 00:44:21;;;;;;;0.00;0.00;;;;;;;5.90;82.38;102503.38;4940381;28;20053;-81
2024/01/12 00:46:51;;;;;;;0.00;0.00;;;;;;;5.77;82.10;102477.69;4962975;28;20054;-81
2024/01/12 00:49:20;;;;;;;0.00;0.00;;;;;;;5.99;82.74;102510.47;4960693;28;20037;-80
2024/01/12 00:51:54;;;;;;;0.00;0.00;;;;;;;5.64;82.29;102454.94;4970986;28;20031;-78
2024/01/12 00:54:26;;;;;;;0.00;0.00;;;;;;;5.76;81.85;102469.72;4969012;28;20046;-79
2024/01/12 00:56:52;;;;;;;0.00;0.00;;;;;;;5.93;82.77;102497.59;4975256;28;20031;-82
2024/01/12 00:59:19;;;;;;;0.00;0.00;;;;;;;6.01;83.37;102492.09;4986937;28;20463;-78
2024/01/12 01:01:45;;;;;;;0.00;0.00;;;;;;;6.16;83.19;102486.66;4958167;28;20093;-81
2024/01/12 01:04:11;;;;;;;0.00;0.00;;;;;;;6.18;84.07;102492.78;4969800;28;20113;-81
2024/01/12 01:06:36;;;;;;;0.00;0.00;;;;;;;6.03;83.24;102464.75;4977785;28;20456;-77
2024/01/12 01:09:02;;;;;;;0.00;0.00;;;;;;;6.06;83.32;102470.66;4967623;28;20018;-76
2024/01/12 01:11:27;;;;;;;0.00;0.00;;;;;;;6.10;82.85;102472.00;4966619;28;20037;-79
2024/01/12 01:14:03;;;;;;;;;;;;;;;;;;;;;
2024/01/12 01:16:29;;;;;;;0.00;0.00;;;;;;;6.24;82.85;102502.06;4987981;28;20101;-77
2024/01/12 01:18:55;;;;;;;0.00;0.00;;;;;;;6.10;83.13;102482.00;4974303;28;20054;-77
2024/01/12 01:21:20;;;;;;;0.00;0.00;;;;;;;6.03;82.90;102487.34;4975387;28;20062;-77
2024/01/12 01:23:46;;;;;;;0.00;0.00;;;;;;;5.94;82.98;102477.53;4945953;28;20030;-80
2024/01/12 01:26:12;;;;;;;0.00;0.00;;;;;;;6.14;83.25;102494.19;4940190;28;20037;-78
2024/01/12 01:28:37;;;;;;;0.00;0.00;;;;;;;5.96;82.29;102470.06;4979788;28;20061;-77
2024/01/12 01:31:03;;;;;;;0.00;0.00;;;;;;;6.07;82.83;102502.22;4956139;28;20038;-78
2024/01/12 01:33:31;;;;;;;0.00;0.00;;;;;;;6.00;82.37;102476.84;4955475;28;20027;-77
2024/01/12 01:35:56;;;;;;;0.00;0.00;;;;;;;6.16;82.35;102502.13;4982541;28;20030;-76
2024/01/12 01:38:22;;;;;;;0.00;0.00;;;;;;;6.04;82.58;102496.31;4964877;28;20037;-78
2024/01/12 01:40:47;;;;;;;0.00;0.00;;;;;;;5.99;82.52;102494.16;4957447;28;20038;-77
2024/01/12 01:43:15;;;;;;;0.00;0.00;;;;;;;5.79;82.13;102466.66;4973807;28;20031;-78
2024/01/12 01:45:40;;;;;;;0.00;0.00;;;;;;;5.91;82.18;102488.75;4959466;28;20031;-76
2024/01/12 01:48:07;;;;;;;0.00;0.00;;;;;;;5.88;82.17;102494.56;4946301;28;20035;-78
2024/01/12 01:50:43;;;;;;;0.00;0.00;;;;;;;5.87;82.81;102495.59;4945758;28;20090;-78
2024/01/12 01:53:08;;;;;;;0.00;0.00;;;;;;;5.89;82.81;102490.84;4962043;28;20066;-77
2024/01/12 01:55:36;;;;;;;0.00;0.00;;;;;;;5.90;83.01;102476.25;4981147;28;20026;-78
2024/01/12 01:58:05;;;;;;;0.00;0.00;;;;;;;5.94;83.43;102470.25;4941417;28;20389;-77
2024/01/12 02:00:31;;;;;;;0.00;0.00;;;;;;;5.91;82.63;102456.19;4960720;28;20023;-77
2024/01/12 02:02:57;;;;;;;0.00;0.00;;;;;;;6.02;82.88;102469.34;4983570;28;20061;-76
2024/01/12 02:05:23;;;;;;;0.00;0.00;;;;;;;6.03;83.28;102471.03;4985360;28;20035;-78
2024/01/12 02:07:49;;;;;;;0.00;0.00;;;;;;;6.04;83.50;102477.31;4951007;28;20588;-77
2024/01/12 02:10:14;;;;;;;0.00;0.00;;;;;;;6.10;83.22;102472.00;4982998;28;20023;-78
2024/01/12 02:12:40;;;;;;;0.00;0.00;;;;;;;6.14;83.25;102482.47;4984702;28;20030;-78
2024/01/12 02:15:09;;;;;;;0.00;0.00;;;;;;;6.12;82.44;102479.94;4956030;28;20030;-78
2024/01/12 02:17:35;;;;;;;0.00;0.00;;;;;;;6.06;82.73;102484.25;4971249;28;20401;-77
2024/01/12 02:20:01;;;;;;;0.00;0.00;;;;;;;6.05;82.32;102485.25;4935340;28;20031;-77
2024/01/12 02:22:26;;;;;;;0.00;0.00;;;;;;;6.06;82.42;102486.97;4964168;28;20023;-77
2024/01/12 02:24:52;;;;;;;0.00;0.00;;;;;;;6.02;83.00;102480.22;4981661;28;20027;-79
2024/01/12 02:27:18;;;;;;;0.10;0.10;;;;;;;6.01;82.57;102483.94;4945955;28;20105;-76
2024/01/12 02:29:45;;;;;;;0.00;0.00;;;;;;;6.16;83.04;102491.28;4939459;28;20070;-78
2024/01/12 02:32:11;;;;;;;0.00;0.00;;;;;;;6.15;82.15;102479.56;4973101;28;20111;-78
2024/01/12 02:34:36;;;;;;;0.00;0.00;;;;;;;6.14;82.90;102460.75;4970350;28;20014;-80
2024/01/12 02:37:02;;;;;;;0.00;0.00;;;;;;;6.40;82.88;102477.41;4973473;28;20018;-81
2024/01/12 02:39:27;;;;;;;0.00;0.00;;;;;;;6.45;82.46;102468.69;4955601;28;20019;-81
2024/01/12 02:41:57;;;;;;;0.00;0.00;;;;;;;6.39;82.06;102473.00;4965061;28;20018;-79
2024/01/12 02:44:25;;;;;;;0.00;0.00;;;;;;;6.35;81.79;102479.88;4969658;28;20393;-80
2024/01/12 02:46:51;;;;;;;0.00;0.00;;;;;;;6.09;81.91;102453.16;4959488;28;20030;-79
2024/01/12 02:49:16;;;;;;;0.00;0.00;;;;;;;6.10;81.48;102463.84;4950136;28;20042;-77
2024/01/12 02:51:42;;;;;;;0.00;0.00;;;;;;;6.03;81.75;102465.59;4959602;28;20038;-80
2024/01/12 02:54:07;;;;;;;0.00;0.00;;;;;;;6.03;81.76;102471.03;4960588;28;20520;-79
2024/01/12 02:56:35;;;;;;;0.00;0.00;;;;;;;5.93;81.55;102467.72;4951432;28;20555;-80
2024/01/12 02:59:00;;;;;;;0.00;0.00;;;;;;;5.97;81.48;102471.75;4948525;28;20027;-80
2024/01/12 03:01:27;;;;;;;0.00;0.00;;;;;;;6.04;81.78;102477.31;4972765;28;20015;-81
2024/01/12 03:03:52;;;;;;;0.00;0.00;;;;;;;6.14;81.92;102466.19;4956814;28;20041;-77
2024/01/12 03:06:18;;;;;;;0.00;0.00;;;;;;;6.20;81.60;102470.84;4964195;28;20027;-79
2024/01/12 03:08:43;;;;;;;0.00;0.00;;;;;;;6.20;81.96;102468.13;4938678;28;20042;-78
2024/01/12 03:11:09;;;;;;;0.00;0.00;;;;;;;6.23;81.80;102475.91;4959504;28;20056;-79
2024/01/12 03:13:35;;;;;;;0.00;0.00;;;;;;;6.18;81.97;102467.50;4965140;28;20105;-78
2024/01/12 03:16:00;;;;;;;0.00;0.00;;;;;;;6.19;81.60;102461.88;4975910;28;20031;-78
2024/01/12 03:18:27;;;;;;;0.00;0.00;;;;;;;6.26;80.76;102475.53;4947691;28;20141;-78
2024/01/12 03:20:52;;;;;;;0.00;0.00;;;;;;;6.24;81.83;102473.00;4971127;28;20034;-78
2024/01/12 03:23:18;;;;;;;0.00;0.00;;;;;;;6.16;80.71;102477.69;4956267;28;20109;-74
2024/01/12 03:25:43;;;;;;;0.10;0.10;;;;;;;6.06;80.96;102469.81;4978065;28;20041;-75
2024/01/12 03:28:09;;;;;;;0.00;0.00;;;;;;;5.99;80.94;102464.28;4949976;28;20464;-77
2024/01/12 03:30:35;;;;;;;0.00;0.00;;;;;;;6.00;81.09;102459.69;4955791;28;20026;-76
2024/01/12 03:33:01;;;;;;;0.00;0.00;;;;;;;5.91;80.32;102450.75;4966621;28;20098;-74
2024/01/12 03:35:26;;;;;;;0.00;0.00;;;;;;;5.98;81.17;102454.44;4974328;28;20054;-75
2024/01/12 03:37:52;;;;;;;0.00;0.00;;;;;;;6.02;81.20;102457.66;4951828;28;20031;-74
2024/01/12 03:40:17;;;;;;;0.00;0.00;;;;;;;5.93;81.29;102443.28;4945772;28;20034;-75
2024/01/12 03:42:43;;;;;;;0.00;0.00;;;;;;;5.95;80.40;102452.06;4979116;28;20042;-74
2024/01/12 03:45:09;;;;;;;0.00;0.00;;;;;;;5.89;81.12;102447.38;4967554;28;20030;-76
2024/01/12 03:47:34;;;;;;;0.00;0.00;;;;;;;5.93;81.30;102465.84;4967052;28;20030;-74
2024/01/12 03:49:59;;;;;;;0.00;0.00;;;;;;;5.81;81.20;102444.75;4968329;28;20026;-75
2024/01/12 03:52:25;;;;;;;0.00;0.00;;;;;;;5.95;81.09;102462.94;4943663;28;20058;-75
2024/01/12 03:54:50;;;;;;;0.10;0.10;;;;;;;5.83;81.36;102440.00;4966449;28;20150;-74
2024/01/12 03:57:16;;;;;;;0.00;0.00;;;;;;;5.99;81.91;102450.69;4941847;28;20042;-74
2024/01/12 03:59:41;;;;;;;0.10;0.10;;;;;;;6.02;81.78;102439.47;4950056;28;20481;-76
2024/01/12 04:02:07;;;;;;;0.00;0.00;;;;;;;6.15;81.60;102440.69;4966331;28;20520;-75
2024/01/12 04:04:32;;;;;;;0.00;0.00;;;;;;;6.01;81.53;102417.94;4963047;28;20117;-75
2024/01/12 04:07:05;;;;;;;0.00;0.00;;;;;;;6.22;80.81;102452.47;4959104;28;20066;-75
2024/01/12 04:09:31;;;;;;;0.00;0.00;;;;;;;6.20;81.60;102451.84;4958248;28;20030;-74
2024/01/12 04:11:56;;;;;;;0.00;0.00;;;;;;;5.97;81.15;102422.88;4941316;28;20014;-75
2024/01/12 04:14:21;;;;;;;0.00;0.00;;;;;;;6.10;80.81;102444.81;4949493;28;20033;-75
2024/01/12 04:16:47;;;;;;;0.00;0.00;;;;;;;5.90;80.62;102413.78;4957279;28;20058;-75
2024/01/12 04:19:12;;;;;;;0.00;0.00;;;;;;;5.98;80.38;102440.88;4967028;28;20058;-75
2024/01/12 04:21:38;;;;;;;0.00;0.00;;;;;;;5.97;79.84;102433.72;4949707;28;20031;-75
2024/01/12 04:24:03;;;;;;;0.00;0.00;;;;;;;5.87;80.12;102434.00;4962977;28;20093;-74
2024/01/12 04:26:28;;;;;;;0.00;0.00;;;;;;;5.85;80.64;102429.78;4980364;28;20034;-75
2024/01/12 04:28:54;;;;;;;0.00;0.00;;;;;;;5.76;80.71;102438.00;4970752;28;20030;-74
2024/01/12 04:31:19;;;;;;;0.00;0.00;;;;;;;5.81;80.48;102433.88;4970410;28;20452;-74
2024/01/12 04:33:45;;;;;;;0.00;0.00;;;;;;;5.83;81.13;102415.56;4964031;28;20569;-77
2024/01/12 04:36:11;;;;;;;0.00;0.00;;;;;;;6.06;80.96;102432.63;4940846;28;20035;-75
2024/01/12 04:38:36;;;;;;;0.00;0.00;;;;;;;6.15;80.27;102429.81;4935136;28;20034;-77
2024/01/12 04:41:02;;;;;;;0.00;0.00;;;;;;;6.28;80.38;102430.03;4935369;28;20033;-76
2024/01/12 04:43:27;;;;;;;0.00;0.00;;;;;;;6.38;80.58;102424.28;4957238;28;20025;-78
2024/01/12 04:45:53;;;;;;;0.00;0.00;;;;;;;6.29;79.71;102409.94;4951601;28;20046;-74
2024/01/12 04:48:18;;;;;;;0.00;0.00;;;;;;;6.21;78.89;102415.50;4960014;28;20643;-75
2024/01/12 04:50:44;;;;;;;0.00;0.00;;;;;;;6.18;78.94;102413.16;4952509;28;20130;-76
2024/01/12 04:53:09;;;;;;;0.00;0.00;;;;;;;6.11;79.20;102407.63;4958671;28;20049;-74
2024/01/12 04:55:35;;;;;;;0.00;0.00;;;;;;;6.10;79.15;102417.66;4953939;28;20118;-75
2024/01/12 04:58:01;;;;;;;0.00;0.00;;;;;;;6.10;78.81;102428.53;4963748;28;20038;-74
2024/01/12 05:00:28;;;;;;;0.00;0.00;;;;;;;5.87;78.75;102390.56;4969306;28;20030;-75
2024/01/12 05:02:56;;;;;;;0.00;0.00;;;;;;;5.83;78.46;102405.53;4941763;28;20027;-77
2024/01/12 05:05:21;;;;;;;0.00;0.00;;;;;;;5.70;78.34;102395.28;4951051;28;20050;-76
2024/01/12 05:07:57;;;;;;;;;;;;;;;;;;;;;
2024/01/12 05:10:22;;;;;;;0.00;0.00;;;;;;;5.63;78.85;102388.09;4969388;28;20444;-73
2024/01/12 05:12:48;;;;;;;0.00;0.00;;;;;;;5.90;78.50;102420.03;4966321;28;20046;-74
2024/01/12 05:15:16;;;;;;;0.00;0.00;;;;;;;5.95;79.57;102419.47;4969125;28;20026;-75
2024/01/12 05:17:41;;;;;;;0.03;0.03;;;;;;;5.82;79.32;102386.69;4943101;28;20037;-77
2024/01/12 05:20:07;;;;;;;0.03;0.03;;;;;;;5.86;78.94;102382.59;4961755;28;20346;-75
2024/01/12 05:22:35;;;;;;;0.00;0.00;;;;;;;5.94;78.84;102396.91;4964933;28;20939;-75
2024/01/12 05:25:03;;;;;;;0.00;0.00;;;;;;;5.93;79.13;102383.53;4987142;28;20021;-76
2024/01/12 05:27:28;;;;;;;0.00;0.00;;;;;;;5.90;77.93;102395.59;4970134;28;20030;-75
2024/01/12 05:29:54;;;;;;;0.00;0.00;;;;;;;5.80;78.26;102381.47;4944348;28;20349;-74
2024/01/12 05:32:19;;;;;;;0.00;0.00;;;;;;;5.88;78.58;102396.81;4942050;28;20027;-76
2024/01/12 05:34:45;;;;;;;0.00;0.00;;;;;;;5.76;78.80;102378.25;4946389;28;20772;-76
2024/01/12 05:37:12;;;;;;;0.00;0.00;;;;;;;5.83;78.41;102399.25;4951852;28;20026;-77
2024/01/12 05:39:38;;;;;;;0.00;0.00;;;;;;;5.87;78.07;102405.97;4937713;28;20110;-79
2024/01/12 05:42:03;;;;;;;0.00;0.00;;;;;;;5.89;78.75;102414.81;4953380;28;20061;-75
2024/01/12 05:44:30;;;;;;;0.00;0.00;;;;;;;5.81;77.53;102414.88;4966724;28;20030;-74
2024/01/12 05:46:55;;;;;;;0.00;0.00;;;;;;;5.65;77.88;102396.88;4961908;28;20026;-77
2024/01/12 05:49:21;;;;;;;0.00;0.00;;;;;;;5.74;78.51;102417.50;4959299;28;20027;-75
2024/01/12 05:51:47;;;;;;;0.00;0.00;;;;;;;5.57;77.75;102395.94;4962723;28;20034;-76
2024/01/12 05:54:13;;;;;;;0.00;0.00;;;;;;;5.64;78.52;102412.34;4951906;28;20097;-75
2024/01/12 05:56:38;;;;;;;0.00;0.00;;;;;;;5.50;79.10;102380.56;4954562;28;20031;-75
2024/01/12 05:59:03;;;;;;;0.00;0.00;;;;;;;5.63;78.70;102399.78;4947884;28;20082;-76
2024/01/12 06:01:29;;;;;;;0.00;0.00;;;;;;;5.74;78.97;102396.63;4954017;28;20750;-75
2024/01/12 06:03:55;;;;;;;0.00;0.00;;;;;;;5.82;79.05;102403.00;4958678;28;20025;-75
2024/01/12 06:06:20;;;;;;;0.08;0.08;;;;;;;5.66;78.54;102382.28;4970080;28;20095;-75
2024/01/12 06:08:46;;;;;;;0.00;0.00;;;;;;;5.71;78.69;102386.13;4956024;28;20536;-75
2024/01/12 06:11:11;;;;;;;0.00;0.00;;;;;;;5.70;78.68;102400.72;4959780;28;20121;-75
2024/01/12 06:13:37;;;;;;;0.00;0.00;;;;;;;5.67;78.91;102390.25;4941525;28;20676;-76
2024/01/12 06:16:02;;;;;;;0.00;0.00;;;;;;;5.56;78.03;102375.25;4935063;28;20137;-76
2024/01/12 06:18:30;;;;;;;0.00;0.00;;;;;;;5.64;78.75;102392.50;4957652;28;20370;-74
2024/01/12 06:20:56;;;;;;;0.00;0.00;;;;;;;5.61;78.29;102391.00;4954153;28;20037;-72
2024/01/12 06:23:21;;;;;;;0.00;0.00;;;;;;;5.52;78.06;102383.94;4950467;28;20011;-74
2024/01/12 06:25:47;;;;;;;0.00;0.00;;;;;;;5.60;79.05;102386.56;4965559;28;20172;-74
2024/01/12 06:28:13;;;;;;;0.00;0.00;;;;;;;5.63;78.69;102383.50;4972354;28;20057;-74
2024/01/12 06:30:38;;;;;;;0.00;0.00;;;;;;;5.78;78.33;102402.50;4969775;28;20437;-74
2024/01/12 06:33:04;;;;;;;0.00;0.00;;;;;;;5.66;78.58;102377.69;4954485;28;20031;-75
2024/01/12 06:35:29;;;;;;;0.00;0.00;;;;;;;5.76;78.17;102399.97;4960710;28;20029;-74
2024/01/12 06:37:57;;;;;;;0.00;0.00;;;;;;;5.69;78.62;102388.16;4967795;28;20026;-74
2024/01/12 06:40:23;;;;;;;0.00;0.00;;;;;;;5.55;78.39;102364.59;4950247;28;20026;-76
2024/01/12 06:42:48;;;;;;;0.00;0.00;;;;;;;5.62;78.13;102376.38;4961539;28;20072;-77
2024/01/12 06:45:14;;;;;;;0.00;0.00;;;;;;;5.73;78.60;102381.34;4974033;28;20026;-75
2024/01/12 06:47:45;;;;;;;0.00;0.00;;;;;;;5.80;78.24;102383.31;4944818;28;20026;-76
2024/01/12 06:50:10;;;;;;;0.00;0.00;;;;;;;5.72;78.32;102376.97;4957950;28;20019;-75
2024/01/12 06:52:37;;;;;;;0.00;0.00;;;;;;;5.83;77.90;102405.53;4938045;28;20115;-74
2024/01/12 06:55:03;;;;;;;0.00;0.00;;;;;;;5.75;78.24;102409.16;4957671;28;20032;-74
2024/01/12 06:57:29;;;;;;;0.00;0.00;;;;;;;5.61;77.39;102391.00;4972981;28;20052;-75
2024/01/12 06:59:54;;;;;;;0.00;0.00;;;;;;;5.61;77.95;102401.84;4931384;28;20117;-74
2024/01/12 07:02:23;;;;;;;0.00;0.00;;;;;;;5.53;77.66;102393.78;4952158;28;20030;-74
2024/01/12 07:11:31;;;;;;;0.00;0.00;;;;;;;5.48;78.59;102407.06;4870667;29;20119;-75
2024/01/12 07:14:07;;;;;;;0.00;0.00;;;;;;;5.19;78.20;102357.94;4914187;29;20043;-75
2024/01/12 07:16:32;;;;;;;0.00;0.00;;;;;;;5.34;78.46;102390.53;4891026;29;20036;-77
2024/01/12 07:18:58;;;;;;;0.00;0.00;;;;;;;5.33;78.64;102386.16;4892895;29;20054;-76
2024/01/12 07:21:23;;;;;;;0.08;0.08;;;;;;;5.30;78.87;102378.38;4882103;29;20043;-76
2024/01/12 07:23:49;;;;;;;0.00;0.00;;;;;;;5.45;78.34;102396.56;4919745;29;20429;-73
2024/01/12 07:26:14;;;;;;;0.00;0.00;;;;;;;5.40;79.03;102383.53;4894413;29;20020;-74
2024/01/12 07:28:43;;;;;;;0.00;0.00;;;;;;;5.48;78.86;102390.78;4912199;29;20078;-74
2024/01/12 07:31:09;;;;;;;0.00;0.00;;;;;;;5.63;78.00;102417.94;4906676;29;20141;-73
2024/01/12 07:33:34;;;;;;;0.00;0.00;;;;;;;5.59;78.77;102422.88;4903223;29;20061;-75
2024/01/12 07:35:59;;;;;;;0.00;0.00;;;;;;;5.37;78.34;102387.50;4917990;29;20043;-75
2024/01/12 07:38:25;;;;;;;0.10;0.10;;;;;;;5.55;78.39;102408.03;4919192;28;20053;-75
2024/01/12 07:40:50;;;;;;;0.00;0.00;;;;;;;5.67;79.22;102406.53;4952754;28;20027;-75
2024/01/12 07:43:19;;;;;;;0.10;0.10;;;;;;;5.83;79.24;102410.13;4967870;28;20022;-76
2024/01/12 07:45:45;;;;;;;0.00;0.00;;;;;;;5.86;79.54;102393.44;4974174;28;20369;-76
2024/01/12 07:48:12;;;;;;;0.00;0.00;;;;;;;6.00;80.33;102389.94;4957848;28;20147;-74
2024/01/12 07:50:38;;;;;;;0.05;0.05;;;;;;;6.23;80.06;102410.72;4981752;28;20147;-75
2024/01/12 07:53:04;;;;;;;0.00;0.00;;;;;;;6.18;80.52;102388.72;4975898;28;20392;-75
2024/01/12 07:55:29;;;;;;;0.00;0.00;;;;;;;6.49;80.62;102420.25;4970076;28;20038;-72
2024/01/12 07:57:55;;;;;;;0.00;0.00;;;;;;;6.78;81.14;102416.63;4979382;28;20037;-76
2024/01/12 08:00:23;;;;;;;0.00;0.00;;;;;;;6.68;80.32;102403.31;4975684;28;20081;-74
2024/01/12 08:02:52;;;;;;;0.00;0.00;;;;;;;6.46;79.33;102400.56;4947649;28;20113;-75
2024/01/12 08:05:19;;;;;;;0.00;0.00;;;;;;;6.19;77.90;102398.53;4957681;28;20030;-75
2024/01/12 08:07:44;;;;;;;0.10;0.10;;;;;;;5.95;77.19;102397.75;4962169;28;20057;-74
2024/01/12 08:10:22;;;;;;;;;;;;;;;;;;;;;
2024/01/12 08:12:49;;;;;;;0.00;0.00;;;;;;;5.67;77.27;102394.84;4954436;28;20040;-74
2024/01/12 08:15:15;;;;;;;0.00;0.00;;;;;;;5.68;77.75;102408.22;4965198;28;20093;-73
2024/01/12 08:17:41;;;;;;;0.00;0.00;;;;;;;5.68;77.74;102418.22;4956673;28;20041;-75
2024/01/12 08:20:07;;;;;;;0.00;0.00;;;;;;;5.45;77.95;102397.41;4959692;28;20033;-74
2024/01/12 08:22:33;;;;;;;0.00;0.00;;;;;;;5.42;77.44;102401.31;4955720;28;20030;-74
2024/01/12 08:24:59;;;;;;;0.00;0.00;;;;;;;5.54;78.09;102417.19;4964809;28;20031;-73
2024/01/12 08:27:25;;;;;;;0.00;0.00;;;;;;;5.26;77.93;102382.50;4978471;28;20019;-74
2024/01/12 08:29:50;;;;;;;0.00;0.00;;;;;;;5.39;77.86;102398.97;4953248;28;20493;-73
2024/01/12 08:32:19;;;;;;;0.00;0.00;;;;;;;5.48;78.21;102428.78;4963978;28;20102;-76
2024/01/12 08:34:48;;;;;;;0.00;0.00;;;;;;;5.45;78.75;102419.13;4952928;28;20038;-75
2024/01/12 08:37:15;;;;;;;0.00;0.00;;;;;;;5.23;79.10;102382.84;4948020;28;20070;-74
2024/01/12 08:39:41;;;;;;;0.00;0.00;;;;;;;5.27;78.41;102395.03;4948053;28;20035;-74
2024/01/12 08:42:07;;;;;;;0.00;0.00;;;;;;;5.32;79.02;102392.59;4946999;28;20038;-73
2024/01/12 08:44:32;;;;;;;0.00;0.00;;;;;;;5.37;78.58;102406.47;4971119;28;20031;-73
2024/01/12 08:46:58;;;;;;;0.00;0.00;;;;;;;5.35;78.71;102392.22;4971479;28;20035;-74
2024/01/12 08:49:24;;;;;;;0.00;0.00;;;;;;;5.34;79.28;102390.53;4954406;28;20063;-76
2024/01/12 08:51:51;;;;;;;0.00;0.00;;;;;;;5.52;79.38;102413.78;4970893;28;20026;-75
2024/01/12 08:54:22;;;;;;;0.00;0.00;;;;;;;5.32;79.26;102381.75;4950098;28;20034;-74
2024/01/12 08:56:48;;;;;;;0.00;0.00;;;;;;;5.41;79.32;102401.50;4948896;28;20054;-74
2024/01/12 08:59:13;;;;;;;0.00;0.00;;;;;;;5.52;79.64;102409.22;4948235;28;20054;-75
2024/01/12 09:02:06;;;;;;;0.00;0.00;;;;;;;5.38;79.57;102381.00;4984139;28;20088;-76
2024/01/12 09:04:43;;;;;;;0.00;0.00;;;;;;;5.39;79.26;102382.72;4960191;28;20513;-75
2024/01/12 09:07:12;;;;;;;0.10;0.10;;;;;;;5.59;79.13;102414.75;4979714;28;20057;-75
2024/01/12 09:09:48;;;;;;;0.00;0.00;;;;;;;5.45;79.12;102386.56;4947716;28;20023;-76
2024/01/12 09:12:14;;;;;;;0.00;0.00;;;;;;;5.64;80.17;102419.63;4950434;28;20034;-75
2024/01/12 09:14:39;;;;;;;0.00;0.00;;;;;;;5.64;79.59;102412.34;4968598;28;20027;-75
2024/01/12 09:17:12;;;;;;;0.00;0.00;;;;;;;5.53;79.35;102388.34;4963524;28;20038;-74
2024/01/12 09:19:37;;;;;;;0.00;0.00;;;;;;;5.52;79.58;102386.66;4955266;28;20122;-74
2024/01/12 09:29:00;;;;;;;0.00;0.00;;;;;;;5.61;79.24;102401.84;4896205;29;20036;-75
2024/01/12 09:31:33;;;;;;;0.00;0.00;;;;;;;5.77;79.58;102417.13;4902255;29;20032;-73
2024/01/12 09:33:59;;;;;;;0.00;0.00;;;;;;;5.81;79.59;102417.59;4912892;29;20075;-76
2024/01/12 09:36:25;;;;;;;0.00;0.00;;;;;;;5.76;79.31;102401.88;4935193;28;20405;-74
2024/01/12 09:38:55;;;;;;;0.00;0.00;;;;;;;5.73;79.09;102389.50;4937499;28;20088;-76
2024/01/12 09:41:38;;;;;;;0.00;0.00;;;;;;;5.71;79.25;102397.00;4969007;28;20050;-76
2024/01/12 09:44:26;;;;;;;0.00;0.00;;;;;;;5.68;78.44;102394.66;4959198;28;20448;-75
2024/01/12 09:47:01;;;;;;;0.10;0.10;;;;;;;5.66;78.77;102387.72;4947164;28;20047;-76
2024/01/12 09:49:29;;;;;;;0.00;0.00;;;;;;;5.73;78.50;102400.34;4962655;28;20086;-74
2024/01/12 09:52:02;;;;;;;0.00;0.00;;;;;;;5.73;79.34;102394.94;4966962;28;20026;-74
2024/01/12 09:54:30;;;;;;;0.00;0.00;;;;;;;5.74;79.24;102391.19;4963097;28;20043;-76
2024/01/12 09:57:03;;;;;;;0.00;0.00;;;;;;;5.67;78.64;102376.66;4940227;28;20042;-75
2024/01/12 09:59:31;;;;;;;0.00;0.00;;;;;;;5.77;78.96;102385.38;4963283;28;20105;-76
2024/01/12 10:01:57;;;;;;;0.00;0.00;;;;;;;6.00;78.92;102414.38;4939289;28;20073;-76
2024/01/12 10:04:22;;;;;;;0.00;0.00;;;;;;;5.85;78.59;102387.16;4992893;28;20026;-75
2024/01/12 10:06:48;;;;;;;0.00;0.00;;;;;;;5.99;78.27;102414.56;4951312;28;20078;-75
2024/01/12 10:09:14;;;;;;;0.00;0.00;;;;;;;5.97;78.47;102417.44;4954006;28;20034;-77
2024/01/12 10:11:41;;;;;;;0.00;0.00;;;;;;;5.86;78.73;102390.75;4976086;28;20014;-76
2024/01/12 10:14:06;;;;;;;0.00;0.00;;;;;;;5.85;78.67;102389.03;4955244;28;20569;-76
2024/01/12 10:16:39;;;;;;;0.00;0.00;;;;;;;5.97;78.84;102403.84;4958582;28;20070;-76
2024/01/12 10:19:05;;;;;;;0.00;0.00;;;;;;;6.16;78.60;102426.06;4972703;28;20456;-76
2024/01/12 10:21:49;;;;;;;;;;;;;;;;;;;;;
2024/01/12 10:24:18;;;;;;;0.00;0.00;;;;;;;6.02;78.08;102406.03;4975717;28;20025;-76
2024/01/12 10:27:00;;;;;;;0.00;0.00;;;;;;;6.02;77.87;102409.59;4980058;28;20027;-75
2024/01/12 10:29:25;;;;;;;0.00;0.00;;;;;;;5.94;78.66;102390.63;4971404;28;20408;-76
2024/01/12 10:31:57;;;;;;;0.00;0.00;;;;;;;6.15;78.40;102416.22;4950254;28;20062;-76
2024/01/12 10:34:35;;;;;;;;;;;;;;;;;;;;;
2024/01/12 10:37:02;;;;;;;0.00;0.00;;;;;;;6.33;78.24;102452.03;4967624;28;20036;-76
2024/01/12 10:39:29;;;;;;;0.00;0.00;;;;;;;6.25;78.02;102424.94;4972223;28;20130;-76
2024/01/12 10:42:01;;;;;;;0.00;0.00;;;;;;;6.13;77.90;102421.00;4962324;28;20026;-76
2024/01/12 10:44:28;;;;;;;0.00;0.00;;;;;;;6.16;77.80;102426.06;4963303;28;20031;-77
2024/01/12 10:47:25;;;;;;;0.00;0.00;;;;;;;6.02;77.90;102409.59;4957358;28;20359;-76
2024/01/12 10:50:11;;;;;;;0.10;0.10;;;;;;;6.30;78.50;102449.69;4971918;28;20141;-75
2024/01/12 10:53:19;;;;;;;;;;;;;;;;;;;;;
2024/01/12 10:55:52;;;;;;;0.00;0.00;;;;;;;6.13;77.60;102415.59;4982139;28;20105;-77
2024/01/12 10:58:18;;;;;;;0.00;0.00;;;;;;;6.35;77.97;102435.53;4971819;28;20022;-76
2024/01/12 11:00:45;;;;;;;0.00;0.00;;;;;;;6.34;78.15;102426.53;4958262;28;20030;-74
2024/01/12 11:03:12;;;;;;;0.00;0.00;;;;;;;6.44;77.43;102437.97;4962707;28;20033;-74
2024/01/12 11:05:39;;;;;;;0.00;0.00;;;;;;;6.37;77.38;102418.00;4962525;28;20112;-75
2024/01/12 11:08:10;;;;;;;0.00;0.00;;;;;;;6.40;77.06;102417.63;4968854;28;20037;-75
2024/01/12 11:10:48;;;;;;;;;;;;;;;;;;;;;
2024/01/12 11:13:16;;;;;;;0.00;0.00;;;;;;;6.22;76.24;102390.00;4960421;28;20066;-75
2024/01/12 11:15:42;;;;;;;0.00;0.00;;;;;;;6.44;77.06;102424.38;4960150;28;20026;-76
2024/01/12 11:18:15;;;;;;;0.00;0.00;;;;;;;6.53;76.49;102424.28;4967899;28;20050;-75
2024/01/12 11:20:43;;;;;;;0.00;0.00;;;;;;;6.47;76.74;102402.25;4952918;28;20061;-74
2024/01/12 11:23:17;;;;;;;0.00;0.00;;;;;;;6.59;75.69;102412.63;4954007;28;20023;-76
2024/01/12 11:25:44;;;;;;;0.00;0.00;;;;;;;6.46;76.03;102376.09;4930044;28;20062;-75
2024/01/12 11:28:19;;;;;;;;;;;;;;;;;;;;;
2024/01/12 11:30:57;;;;;;;0.00;0.00;;;;;;;6.72;75.59;102387.47;4954598;28;20121;-75
2024/01/12 11:33:28;;;;;;;0.00;0.00;;;;;;;6.70;75.22;102368.66;4975148;28;20074;-75
2024/01/12 11:35:54;;;;;;;0.00;0.00;;;;;;;6.70;74.69;102365.06;4941312;28;20438;-74
2024/01/12 11:38:38;;;;;;;0.00;0.00;;;;;;;6.61;74.56;102356.19;4962282;28;20034;-75
2024/01/12 11:41:10;;;;;;;0.00;0.00;;;;;;;6.85;75.02;102384.03;4965813;28;20057;-75
2024/01/12 11:43:35;;;;;;;0.00;0.00;;;;;;;6.87;74.52;102390.16;4958582;28;20089;-76
2024/01/12 11:46:02;;;;;;;0.00;0.00;;;;;;;6.88;73.99;102380.94;4963390;28;20037;-74
2024/01/12 11:48:36;;;;;;;0.00;0.00;;;;;;;6.91;74.47;102375.13;4966394;28;20801;-74
2024/01/12 11:51:04;;;;;;;;;;;;;;;7.05;74.26;102370.66;4968660;28;20031;-75
2024/01/12 11:53:31;;;;;;;0.00;0.00;;;;;;;6.92;73.76;102338.72;4959403;28;20060;-75
2024/01/12 11:55:57;;;;;;;0.00;0.00;;;;;;;7.09;73.63;102361.91;4989196;28;20131;-75
2024/01/12 11:58:22;;;;;;;0.00;0.00;;;;;;;6.93;73.80;102329.53;4954414;28;20481;-75
2024/01/12 12:00:50;;;;;;;0.00;0.00;;;;;;;7.12;73.86;102361.50;4965361;28;20089;-76